sensor_id;sensor_type;location;lat;lon;timestamp;temperature;humidity
74946;HTU21D;63509;45.250;38.102;2023-07-09T00:02:07;22.83;65.60
74946;HTU21D;63509;45.250;38.102;2023-07-09T00:04:34;22.83;65.62
74946;HTU21D;63509;45.250;38.102;2023-07-09T00:07:02;22.82;65.63
74946;HTU21D;63509;45.250;38.102;2023-07-09T00:09:28;22.81;65.23
74946;HTU21D;63509;45.250;38.102;2023-07-09T00:11:55;22.79;65.50
74946;HTU21D;63509;45.250;38.102;2023-07-09T00:14:22;22.79;65.61
74946;HTU21D;63509;45.250;38.102;2023-07-09T00:16:48;22.80;65.63
74946;HTU21D;63509;45.250;38.102;2023-07-09T00:19:18;22.78;65.61
74946;HTU21D;63509;45.250;38.102;2023-07-09T00:21:46;22.78;65.70
74946;HTU21D;63509;45.250;38.102;2023-07-09T00:24:12;22.77;65.78
74946;HTU21D;63509;45.250;38.102;2023-07-09T00:26:39;22.79;65.77
74946;HTU21D;63509;45.250;38.102;2023-07-09T00:29:12;22.81;65.60
74946;HTU21D;63509;45.250;38.102;2023-07-09T00:31:39;22.82;65.78
74946;HTU21D;63509;45.250;38.102;2023-07-09T00:34:10;22.82;65.79
74946;HTU21D;63509;45.250;38.102;2023-07-09T00:36:41;22.83;65.82
74946;HTU21D;63509;45.250;38.102;2023-07-09T00:39:16;22.83;65.70
74946;HTU21D;63509;45.250;38.102;2023-07-09T00:41:44;22.82;65.90
74946;HTU21D;63509;45.250;38.102;2023-07-09T00:49:15;22.82;65.82
74946;HTU21D;63509;45.250;38.102;2023-07-09T00:51:45;22.83;65.82
74946;HTU21D;63509;45.250;38.102;2023-07-09T00:54:27;22.82;65.65
74946;HTU21D;63509;45.250;38.102;2023-07-09T00:57:00;22.83;65.82
74946;HTU21D;63509;45.250;38.102;2023-07-09T00:59:30;22.86;65.90
74946;HTU21D;63509;45.250;38.102;2023-07-09T01:01:58;22.92;65.91
74946;HTU21D;63509;45.250;38.102;2023-07-09T01:04:26;22.94;65.91
74946;HTU21D;63509;45.250;38.102;2023-07-09T01:06:55;22.94;65.91
74946;HTU21D;63509;45.250;38.102;2023-07-09T01:09:22;22.95;65.51
74946;HTU21D;63509;45.250;38.102;2023-07-09T01:11:49;22.97;65.77
74946;HTU21D;63509;45.250;38.102;2023-07-09T01:14:19;22.99;65.78
74946;HTU21D;63509;45.250;38.102;2023-07-09T01:16:50;22.99;65.76
74946;HTU21D;63509;45.250;38.102;2023-07-09T01:19:28;22.95;65.78
74946;HTU21D;63509;45.250;38.102;2023-07-09T01:21:56;22.91;65.82
74946;HTU21D;63509;45.250;38.102;2023-07-09T01:27:13;22.87;65.98
74946;HTU21D;63509;45.250;38.102;2023-07-09T01:29:39;22.88;66.04
74946;HTU21D;63509;45.250;38.102;2023-07-09T01:32:06;22.91;66.05
74946;HTU21D;63509;45.250;38.102;2023-07-09T01:34:33;22.90;66.02
74946;HTU21D;63509;45.250;38.102;2023-07-09T01:36:59;22.83;66.01
74946;HTU21D;63509;45.250;38.102;2023-07-09T01:39:26;22.73;66.09
74946;HTU21D;63509;45.250;38.102;2023-07-09T01:41:54;22.66;66.26
74946;HTU21D;63509;45.250;38.102;2023-07-09T01:44:21;22.62;66.36
74946;HTU21D;63509;45.250;38.102;2023-07-09T01:46:47;22.62;66.46
74946;HTU21D;63509;45.250;38.102;2023-07-09T01:49:13;22.63;66.48
74946;HTU21D;63509;45.250;38.102;2023-07-09T01:51:41;22.63;66.46
74946;HTU21D;63509;45.250;38.102;2023-07-09T01:54:07;22.63;66.49
74946;HTU21D;63509;45.250;38.102;2023-07-09T01:56:35;22.62;66.55
74946;HTU21D;63509;45.250;38.102;2023-07-09T01:59:06;22.64;66.58
74946;HTU21D;63509;45.250;38.102;2023-07-09T02:01:32;22.66;66.62
74946;HTU21D;63509;45.250;38.102;2023-07-09T02:04:02;22.66;66.61
74946;HTU21D;63509;45.250;38.102;2023-07-09T02:06:30;22.65;66.62
74946;HTU21D;63509;45.250;38.102;2023-07-09T02:08:58;22.64;66.64
74946;HTU21D;63509;45.250;38.102;2023-07-09T02:11:24;22.64;66.70
74946;HTU21D;63509;45.250;38.102;2023-07-09T02:13:51;22.65;66.75
74946;HTU21D;63509;45.250;38.102;2023-07-09T02:16:17;22.67;66.78
74946;HTU21D;63509;45.250;38.102;2023-07-09T02:18:43;22.71;66.78
74946;HTU21D;63509;45.250;38.102;2023-07-09T02:21:09;22.73;66.75
74946;HTU21D;63509;45.250;38.102;2023-07-09T02:23:35;22.73;66.73
74946;HTU21D;63509;45.250;38.102;2023-07-09T02:26:01;22.73;66.75
74946;HTU21D;63509;45.250;38.102;2023-07-09T02:28:29;22.69;66.75
74946;HTU21D;63509;45.250;38.102;2023-07-09T02:30:55;22.65;66.81
74946;HTU21D;63509;45.250;38.102;2023-07-09T02:33:21;22.64;66.84
74946;HTU21D;63509;45.250;38.102;2023-07-09T02:35:49;22.61;66.91
74946;HTU21D;63509;45.250;38.102;2023-07-09T02:38:15;22.62;66.99
74946;HTU21D;63509;45.250;38.102;2023-07-09T02:40:41;22.65;67.04
74946;HTU21D;63509;45.250;38.102;2023-07-09T02:43:07;22.68;67.09
74946;HTU21D;63509;45.250;38.102;2023-07-09T02:45:33;22.72;67.07
74946;HTU21D;63509;45.250;38.102;2023-07-09T02:47:59;22.78;67.09
74946;HTU21D;63509;45.250;38.102;2023-07-09T02:50:26;22.81;67.10
74946;HTU21D;63509;45.250;38.102;2023-07-09T02:52:52;22.83;67.08
74946;HTU21D;63509;45.250;38.102;2023-07-09T02:55:18;22.87;67.11
74946;HTU21D;63509;45.250;38.102;2023-07-09T02:57:45;22.91;67.14
74946;HTU21D;63509;45.250;38.102;2023-07-09T03:00:11;22.97;67.14
74946;HTU21D;63509;45.250;38.102;2023-07-09T03:02:41;23.01;67.01
74946;HTU21D;63509;45.250;38.102;2023-07-09T03:05:07;23.01;67.07
74946;HTU21D;63509;45.250;38.102;2023-07-09T03:07:36;22.99;67.10
74946;HTU21D;63509;45.250;38.102;2023-07-09T03:10:02;23.00;67.09
74946;HTU21D;63509;45.250;38.102;2023-07-09T03:12:28;22.98;67.17
74946;HTU21D;63509;45.250;38.102;2023-07-09T03:14:54;23.00;67.23
74946;HTU21D;63509;45.250;38.102;2023-07-09T03:17:21;23.05;67.28
74946;HTU21D;63509;45.250;38.102;2023-07-09T03:19:47;23.07;67.28
74946;HTU21D;63509;45.250;38.102;2023-07-09T03:22:13;23.09;67.26
74946;HTU21D;63509;45.250;38.102;2023-07-09T03:24:39;23.13;67.30
74946;HTU21D;63509;45.250;38.102;2023-07-09T03:27:05;23.18;67.31
74946;HTU21D;63509;45.250;38.102;2023-07-09T03:29:32;23.27;67.29
74946;HTU21D;63509;45.250;38.102;2023-07-09T03:31:58;23.34;67.28
74946;HTU21D;63509;45.250;38.102;2023-07-09T03:34:24;23.41;67.27
74946;HTU21D;63509;45.250;38.102;2023-07-09T03:36:50;23.50;67.20
74946;HTU21D;63509;45.250;38.102;2023-07-09T03:39:16;23.56;67.17
74946;HTU21D;63509;45.250;38.102;2023-07-09T03:41:42;23.61;67.16
74946;HTU21D;63509;45.250;38.102;2023-07-09T03:44:08;23.65;67.14
74946;HTU21D;63509;45.250;38.102;2023-07-09T03:46:34;23.67;67.14
74946;HTU21D;63509;45.250;38.102;2023-07-09T03:49:00;23.69;67.17
74946;HTU21D;63509;45.250;38.102;2023-07-09T03:51:27;23.69;67.20
74946;HTU21D;63509;45.250;38.102;2023-07-09T03:53:53;23.71;67.23
74946;HTU21D;63509;45.250;38.102;2023-07-09T03:56:19;23.75;67.34
74946;HTU21D;63509;45.250;38.102;2023-07-09T03:58:45;23.80;67.34
74946;HTU21D;63509;45.250;38.102;2023-07-09T04:01:12;23.85;67.33
74946;HTU21D;63509;45.250;38.102;2023-07-09T04:03:38;23.88;67.36
74946;HTU21D;63509;45.250;38.102;2023-07-09T04:06:04;23.90;67.39
74946;HTU21D;63509;45.250;38.102;2023-07-09T04:08:30;23.94;67.43
74946;HTU21D;63509;45.250;38.102;2023-07-09T04:11:00;23.97;67.44
74946;HTU21D;63509;45.250;38.102;2023-07-09T04:13:28;24.01;67.60
74946;HTU21D;63509;45.250;38.102;2023-07-09T04:15:55;24.06;67.66
74946;HTU21D;63509;45.250;38.102;2023-07-09T04:18:22;24.11;67.78
74946;HTU21D;63509;45.250;38.102;2023-07-09T04:20:48;24.16;67.76
74946;HTU21D;63509;45.250;38.102;2023-07-09T04:23:18;24.21;67.84
74946;HTU21D;63509;45.250;38.102;2023-07-09T04:25:45;24.25;67.87
74946;HTU21D;63509;45.250;38.102;2023-07-09T04:28:11;24.28;67.84
74946;HTU21D;63509;45.250;38.102;2023-07-09T04:30:37;24.32;67.87
74946;HTU21D;63509;45.250;38.102;2023-07-09T04:33:04;24.35;67.94
74946;HTU21D;63509;45.250;38.102;2023-07-09T04:35:30;24.41;67.88
74946;HTU21D;63509;45.250;38.102;2023-07-09T04:37:56;24.48;67.94
74946;HTU21D;63509;45.250;38.102;2023-07-09T04:40:22;24.55;67.96
74946;HTU21D;63509;45.250;38.102;2023-07-09T04:42:48;24.61;67.97
74946;HTU21D;63509;45.250;38.102;2023-07-09T04:45:15;24.68;67.82
74946;HTU21D;63509;45.250;38.102;2023-07-09T04:47:41;24.73;67.91
74946;HTU21D;63509;45.250;38.102;2023-07-09T04:50:08;24.79;67.88
74946;HTU21D;63509;45.250;38.102;2023-07-09T04:52:35;24.84;67.77
74946;HTU21D;63509;45.250;38.102;2023-07-09T04:55:01;24.91;67.82
74946;HTU21D;63509;45.250;38.102;2023-07-09T04:57:27;24.99;67.86
74946;HTU21D;63509;45.250;38.102;2023-07-09T04:59:53;25.05;67.84
74946;HTU21D;63509;45.250;38.102;2023-07-09T05:02:20;25.13;67.88
74946;HTU21D;63509;45.250;38.102;2023-07-09T05:04:46;25.19;67.84
74946;HTU21D;63509;45.250;38.102;2023-07-09T05:07:12;25.27;67.94
74946;HTU21D;63509;45.250;38.102;2023-07-09T05:09:38;25.37;67.91
74946;HTU21D;63509;45.250;38.102;2023-07-09T05:12:05;25.44;67.84
74946;HTU21D;63509;45.250;38.102;2023-07-09T05:14:31;25.52;67.78
74946;HTU21D;63509;45.250;38.102;2023-07-09T05:16:57;25.59;67.69
74946;HTU21D;63509;45.250;38.102;2023-07-09T05:19:23;25.65;67.68
74946;HTU21D;63509;45.250;38.102;2023-07-09T05:21:49;25.72;67.65
74946;HTU21D;63509;45.250;38.102;2023-07-09T05:24:15;25.78;67.61
74946;HTU21D;63509;45.250;38.102;2023-07-09T05:26:41;25.83;67.54
74946;HTU21D;63509;45.250;38.102;2023-07-09T05:29:07;25.87;67.49
74946;HTU21D;63509;45.250;38.102;2023-07-09T05:31:34;25.92;67.49
74946;HTU21D;63509;45.250;38.102;2023-07-09T05:34:01;25.94;67.00
74946;HTU21D;63509;45.250;38.102;2023-07-09T05:36:29;25.94;67.24
74946;HTU21D;63509;45.250;38.102;2023-07-09T05:38:55;25.95;67.24
74946;HTU21D;63509;45.250;38.102;2023-07-09T05:41:22;25.97;67.32
74946;HTU21D;63509;45.250;38.102;2023-07-09T05:43:50;26.02;67.34
74946;HTU21D;63509;45.250;38.102;2023-07-09T05:46:17;26.07;67.30
74946;HTU21D;63509;45.250;38.102;2023-07-09T05:48:43;26.13;67.26
74946;HTU21D;63509;45.250;38.102;2023-07-09T05:51:09;26.19;67.23
74946;HTU21D;63509;45.250;38.102;2023-07-09T05:53:35;26.23;67.20
74946;HTU21D;63509;45.250;38.102;2023-07-09T05:56:02;26.28;67.15
74946;HTU21D;63509;45.250;38.102;2023-07-09T05:58:28;26.34;67.17
74946;HTU21D;63509;45.250;38.102;2023-07-09T06:00:55;26.38;67.12
74946;HTU21D;63509;45.250;38.102;2023-07-09T06:03:24;26.42;67.10
74946;HTU21D;63509;45.250;38.102;2023-07-09T06:05:50;26.49;67.01
74946;HTU21D;63509;45.250;38.102;2023-07-09T06:08:17;26.51;67.00
74946;HTU21D;63509;45.250;38.102;2023-07-09T06:10:57;26.57;66.88
74946;HTU21D;63509;45.250;38.102;2023-07-09T06:13:25;26.65;66.89
74946;HTU21D;63509;45.250;38.102;2023-07-09T06:15:54;26.67;66.81
74946;HTU21D;63509;45.250;38.102;2023-07-09T06:18:22;26.73;66.85
74946;HTU21D;63509;45.250;38.102;2023-07-09T06:20:56;26.82;66.63
74946;HTU21D;63509;45.250;38.102;2023-07-09T06:23:23;26.91;66.76
74946;HTU21D;63509;45.250;38.102;2023-07-09T06:25:49;27.00;66.73
74946;HTU21D;63509;45.250;38.102;2023-07-09T06:28:18;27.09;66.52
74946;HTU21D;63509;45.250;38.102;2023-07-09T06:30:45;27.14;66.33
74946;HTU21D;63509;45.250;38.102;2023-07-09T06:33:13;27.15;66.16
74946;HTU21D;63509;45.250;38.102;2023-07-09T06:35:45;27.19;66.12
74946;HTU21D;63509;45.250;38.102;2023-07-09T06:38:11;27.22;66.11
74946;HTU21D;63509;45.250;38.102;2023-07-09T06:40:37;27.29;66.09
74946;HTU21D;63509;45.250;38.102;2023-07-09T06:43:04;27.35;65.90
74946;HTU21D;63509;45.250;38.102;2023-07-09T06:45:36;27.37;65.73
74946;HTU21D;63509;45.250;38.102;2023-07-09T06:48:02;27.40;65.65
74946;HTU21D;63509;45.250;38.102;2023-07-09T06:50:32;27.45;65.62
74946;HTU21D;63509;45.250;38.102;2023-07-09T06:52:58;27.47;65.46
74946;HTU21D;63509;45.250;38.102;2023-07-09T06:55:24;27.47;65.44
74946;HTU21D;63509;45.250;38.102;2023-07-09T06:57:51;27.49;65.43
74946;HTU21D;63509;45.250;38.102;2023-07-09T07:00:17;27.52;65.40
74946;HTU21D;63509;45.250;38.102;2023-07-09T07:02:43;27.56;65.24
74946;HTU21D;63509;45.250;38.102;2023-07-09T07:05:10;27.57;65.18
74946;HTU21D;63509;45.250;38.102;2023-07-09T07:07:36;27.60;65.10
74946;HTU21D;63509;45.250;38.102;2023-07-09T07:10:02;27.64;65.08
74946;HTU21D;63509;45.250;38.102;2023-07-09T07:12:29;27.69;64.99
74946;HTU21D;63509;45.250;38.102;2023-07-09T07:15:06;27.73;64.85
74946;HTU21D;63509;45.250;38.102;2023-07-09T07:17:32;27.75;64.82
74946;HTU21D;63509;45.250;38.102;2023-07-09T07:19:58;27.80;64.81
74946;HTU21D;63509;45.250;38.102;2023-07-09T07:22:26;27.84;64.76
74946;HTU21D;63509;45.250;38.102;2023-07-09T07:24:52;27.88;64.57
74946;HTU21D;63509;45.250;38.102;2023-07-09T07:27:18;27.89;64.58
74946;HTU21D;63509;45.250;38.102;2023-07-09T07:29:44;27.94;64.56
74946;HTU21D;63509;45.250;38.102;2023-07-09T07:32:11;27.96;64.47
74946;HTU21D;63509;45.250;38.102;2023-07-09T07:34:37;27.96;64.36
74946;HTU21D;63509;45.250;38.102;2023-07-09T07:37:04;27.95;64.36
74946;HTU21D;63509;45.250;38.102;2023-07-09T07:39:30;27.91;64.33
74946;HTU21D;63509;45.250;38.102;2023-07-09T07:41:56;27.90;64.37
74946;HTU21D;63509;45.250;38.102;2023-07-09T07:44:23;27.93;64.37
74946;HTU21D;63509;45.250;38.102;2023-07-09T07:46:49;27.95;64.34
74946;HTU21D;63509;45.250;38.102;2023-07-09T07:49:15;27.97;64.21
74946;HTU21D;63509;45.250;38.102;2023-07-09T07:51:42;28.01;64.14
74946;HTU21D;63509;45.250;38.102;2023-07-09T07:54:08;28.03;64.07
74946;HTU21D;63509;45.250;38.102;2023-07-09T07:56:37;28.09;64.00
74946;HTU21D;63509;45.250;38.102;2023-07-09T07:59:03;28.16;63.98
74946;HTU21D;63509;45.250;38.102;2023-07-09T08:01:29;28.26;63.85
74946;HTU21D;63509;45.250;38.102;2023-07-09T08:03:55;28.30;63.68
74946;HTU21D;63509;45.250;38.102;2023-07-09T08:06:22;28.33;63.46
74946;HTU21D;63509;45.250;38.102;2023-07-09T08:08:48;28.35;63.35
74946;HTU21D;63509;45.250;38.102;2023-07-09T08:11:14;28.35;63.32
74946;HTU21D;63509;45.250;38.102;2023-07-09T08:13:40;28.39;63.24
74946;HTU21D;63509;45.250;38.102;2023-07-09T08:16:08;28.42;63.18
74946;HTU21D;63509;45.250;38.102;2023-07-09T08:18:37;28.47;63.11
74946;HTU21D;63509;45.250;38.102;2023-07-09T08:21:04;28.50;63.05
74946;HTU21D;63509;45.250;38.102;2023-07-09T08:23:31;28.57;63.08
74946;HTU21D;63509;45.250;38.102;2023-07-09T08:25:59;28.68;62.94
74946;HTU21D;63509;45.250;38.102;2023-07-09T08:28:26;28.76;62.82
74946;HTU21D;63509;45.250;38.102;2023-07-09T08:30:53;28.84;62.64
74946;HTU21D;63509;45.250;38.102;2023-07-09T08:33:19;28.87;62.56
74946;HTU21D;63509;45.250;38.102;2023-07-09T08:35:45;28.91;62.50
74946;HTU21D;63509;45.250;38.102;2023-07-09T08:38:12;28.99;62.47
74946;HTU21D;63509;45.250;38.102;2023-07-09T08:40:40;29.08;62.30
74946;HTU21D;63509;45.250;38.102;2023-07-09T08:43:34;29.16;62.08
74946;HTU21D;63509;45.250;38.102;2023-07-09T08:46:17;29.17;62.08
74946;HTU21D;63509;45.250;38.102;2023-07-09T08:48:48;29.20;61.99
74946;HTU21D;63509;45.250;38.102;2023-07-09T08:51:21;29.20;61.86
74946;HTU21D;63509;45.250;38.102;2023-07-09T08:54:00;29.21;61.78
74946;HTU21D;63509;45.250;38.102;2023-07-09T08:56:29;29.21;61.73
74946;HTU21D;63509;45.250;38.102;2023-07-09T08:58:59;29.19;61.67
74946;HTU21D;63509;45.250;38.102;2023-07-09T09:01:38;29.16;61.57
74946;HTU21D;63509;45.250;38.102;2023-07-09T09:04:28;29.11;61.59
74946;HTU21D;63509;45.250;38.102;2023-07-09T09:09:39;29.17;61.63
74946;HTU21D;63509;45.250;38.102;2023-07-09T09:12:17;29.24;61.48
74946;HTU21D;63509;45.250;38.102;2023-07-09T09:15:17;29.34;61.30
74946;HTU21D;63509;45.250;38.102;2023-07-09T09:17:44;29.38;61.21
74946;HTU21D;63509;45.250;38.102;2023-07-09T09:20:30;29.45;61.02
74946;HTU21D;63509;45.250;38.102;2023-07-09T09:23:14;29.51;60.99
74946;HTU21D;63509;45.250;38.102;2023-07-09T09:25:51;29.58;60.83
74946;HTU21D;63509;45.250;38.102;2023-07-09T09:28:19;29.62;60.75
74946;HTU21D;63509;45.250;38.102;2023-07-09T09:30:45;29.67;60.67
74946;HTU21D;63509;45.250;38.102;2023-07-09T09:33:11;29.71;60.54
74946;HTU21D;63509;45.250;38.102;2023-07-09T09:35:41;29.66;60.50
74946;HTU21D;63509;45.250;38.102;2023-07-09T09:38:12;29.59;60.59
74946;HTU21D;63509;45.250;38.102;2023-07-09T09:40:39;29.54;60.54
74946;HTU21D;63509;45.250;38.102;2023-07-09T09:43:17;29.50;60.57
74946;HTU21D;63509;45.250;38.102;2023-07-09T09:45:47;29.47;60.65
74946;HTU21D;63509;45.250;38.102;2023-07-09T09:48:17;29.50;60.73
74946;HTU21D;63509;45.250;38.102;2023-07-09T09:50:45;29.59;60.75
74946;HTU21D;63509;45.250;38.102;2023-07-09T09:53:22;29.68;60.61
74946;HTU21D;63509;45.250;38.102;2023-07-09T09:55:51;29.76;60.51
74946;HTU21D;63509;45.250;38.102;2023-07-09T09:58:18;29.85;60.37
74946;HTU21D;63509;45.250;38.102;2023-07-09T10:00:54;29.82;60.29
74946;HTU21D;63509;45.250;38.102;2023-07-09T10:03:32;29.67;60.29
74946;HTU21D;63509;45.250;38.102;2023-07-09T10:06:00;29.29;60.47
74946;HTU21D;63509;45.250;38.102;2023-07-09T10:11:21;27.85;61.44
74946;HTU21D;63509;45.250;38.102;2023-07-09T10:13:51;27.00;62.24
74946;HTU21D;63509;45.250;38.102;2023-07-09T10:16:54;26.31;62.92
74946;HTU21D;63509;45.250;38.102;2023-07-09T10:19:32;25.84;63.58
74946;HTU21D;63509;45.250;38.102;2023-07-09T10:26:59;25.04;64.21
74946;HTU21D;63509;45.250;38.102;2023-07-09T10:32:49;24.70;64.35
74946;HTU21D;63509;45.250;38.102;2023-07-09T10:35:57;24.54;64.30
74946;HTU21D;63509;45.250;38.102;2023-07-09T10:40:57;24.19;64.51
74946;HTU21D;63509;45.250;38.102;2023-07-09T10:43:41;24.08;64.58
74946;HTU21D;63509;45.250;38.102;2023-07-09T10:46:16;23.92;64.77
74946;HTU21D;63509;45.250;38.102;2023-07-09T10:48:45;23.84;64.98
74946;HTU21D;63509;45.250;38.102;2023-07-09T10:51:37;23.76;64.85
74946;HTU21D;63509;45.250;38.102;2023-07-09T10:54:10;23.69;65.11
74946;HTU21D;63509;45.250;38.102;2023-07-09T10:56:40;23.62;65.24
74946;HTU21D;63509;45.250;38.102;2023-07-09T11:02:32;23.49;65.03
74946;HTU21D;63509;45.250;38.102;2023-07-09T11:05:04;23.45;65.30
74946;HTU21D;63509;45.250;38.102;2023-07-09T11:32:22;25.33;70.83
74946;HTU21D;63509;45.250;38.102;2023-07-09T11:34:48;25.22;70.41
74946;HTU21D;63509;45.250;38.102;2023-07-09T11:37:15;25.14;70.56
74946;HTU21D;63509;45.250;38.102;2023-07-09T11:39:48;25.12;70.23
74946;HTU21D;63509;45.250;38.102;2023-07-09T11:44:54;25.07;70.23
74946;HTU21D;63509;45.250;38.102;2023-07-09T11:47:30;25.12;69.91
74946;HTU21D;63509;45.250;38.102;2023-07-09T11:50:04;25.16;69.94
74946;HTU21D;63509;45.250;38.102;2023-07-09T11:57:41;25.40;69.83
74946;HTU21D;63509;45.250;38.102;2023-07-09T12:00:12;25.52;69.61
74946;HTU21D;63509;45.250;38.102;2023-07-09T12:02:38;25.64;69.64
74946;HTU21D;63509;45.250;38.102;2023-07-09T12:05:05;25.79;69.39
74946;HTU21D;63509;45.250;38.102;2023-07-09T12:07:32;25.90;69.23
74946;HTU21D;63509;45.250;38.102;2023-07-09T12:10:03;25.95;68.97
74946;HTU21D;63509;45.250;38.102;2023-07-09T12:12:30;25.99;68.83
74946;HTU21D;63509;45.250;38.102;2023-07-09T12:14:56;25.98;68.61
74946;HTU21D;63509;45.250;38.102;2023-07-09T12:17:28;25.95;68.41
74946;HTU21D;63509;45.250;38.102;2023-07-09T12:19:56;25.93;68.42
74946;HTU21D;63509;45.250;38.102;2023-07-09T12:22:22;25.91;68.43
74946;HTU21D;63509;45.250;38.102;2023-07-09T12:24:50;25.89;68.23
74946;HTU21D;63509;45.250;38.102;2023-07-09T12:27:19;25.86;68.16
74946;HTU21D;63509;45.250;38.102;2023-07-09T12:29:46;25.82;68.13
74946;HTU21D;63509;45.250;38.102;2023-07-09T12:32:16;25.76;68.09
74946;HTU21D;63509;45.250;38.102;2023-07-09T12:34:55;25.71;67.97
74946;HTU21D;63509;45.250;38.102;2023-07-09T12:37:22;25.65;68.07
74946;HTU21D;63509;45.250;38.102;2023-07-09T12:39:51;25.61;68.05
74946;HTU21D;63509;45.250;38.102;2023-07-09T12:42:35;25.56;67.90
74946;HTU21D;63509;45.250;38.102;2023-07-09T12:45:02;25.51;68.07
74946;HTU21D;63509;45.250;38.102;2023-07-09T12:47:28;25.49;68.03
74946;HTU21D;63509;45.250;38.102;2023-07-09T12:50:11;25.51;67.91
74946;HTU21D;63509;45.250;38.102;2023-07-09T12:52:46;25.59;68.01
74946;HTU21D;63509;45.250;38.102;2023-07-09T12:55:21;25.73;67.88
74946;HTU21D;63509;45.250;38.102;2023-07-09T12:57:48;25.88;67.84
74946;HTU21D;63509;45.250;38.102;2023-07-09T13:00:18;26.04;67.56
74946;HTU21D;63509;45.250;38.102;2023-07-09T13:02:45;26.16;67.40
74946;HTU21D;63509;45.250;38.102;2023-07-09T13:05:20;26.27;67.13
74946;HTU21D;63509;45.250;38.102;2023-07-09T13:07:50;26.35;66.85
74946;HTU21D;63509;45.250;38.102;2023-07-09T13:10:21;26.40;66.67
74946;HTU21D;63509;45.250;38.102;2023-07-09T13:12:49;26.40;66.53
74946;HTU21D;63509;45.250;38.102;2023-07-09T13:18:05;26.41;66.38
74946;HTU21D;63509;45.250;38.102;2023-07-09T13:20:33;26.42;66.40
74946;HTU21D;63509;45.250;38.102;2023-07-09T13:23:03;26.45;66.35
74946;HTU21D;63509;45.250;38.102;2023-07-09T13:25:31;26.43;66.34
74946;HTU21D;63509;45.250;38.102;2023-07-09T13:27:57;26.45;66.30
74946;HTU21D;63509;45.250;38.102;2023-07-09T13:30:23;26.47;66.24
74946;HTU21D;63509;45.250;38.102;2023-07-09T13:32:49;26.47;66.17
74946;HTU21D;63509;45.250;38.102;2023-07-09T13:35:18;26.47;66.17
74946;HTU21D;63509;45.250;38.102;2023-07-09T13:37:45;26.45;66.17
74946;HTU21D;63509;45.250;38.102;2023-07-09T13:40:12;26.43;65.99
74946;HTU21D;63509;45.250;38.102;2023-07-09T13:42:39;26.39;66.21
74946;HTU21D;63509;45.250;38.102;2023-07-09T13:45:23;26.39;66.06
74946;HTU21D;63509;45.250;38.102;2023-07-09T13:47:51;26.38;66.27
74946;HTU21D;63509;45.250;38.102;2023-07-09T13:50:19;26.36;66.24
74946;HTU21D;63509;45.250;38.102;2023-07-09T13:52:46;26.36;66.25
74946;HTU21D;63509;45.250;38.102;2023-07-09T13:55:21;26.39;66.14
74946;HTU21D;63509;45.250;38.102;2023-07-09T13:57:50;26.36;66.14
74946;HTU21D;63509;45.250;38.102;2023-07-09T14:00:17;26.25;66.11
74946;HTU21D;63509;45.250;38.102;2023-07-09T14:02:44;26.13;66.20
74946;HTU21D;63509;45.250;38.102;2023-07-09T14:05:12;25.99;66.36
74946;HTU21D;63509;45.250;38.102;2023-07-09T14:07:40;25.83;66.55
74946;HTU21D;63509;45.250;38.102;2023-07-09T14:10:11;25.72;66.72
74946;HTU21D;63509;45.250;38.102;2023-07-09T14:12:41;25.58;66.89
74946;HTU21D;63509;45.250;38.102;2023-07-09T14:15:19;25.43;66.91
74946;HTU21D;63509;45.250;38.102;2023-07-09T14:17:46;25.31;67.32
74946;HTU21D;63509;45.250;38.102;2023-07-09T14:20:15;25.21;67.39
74946;HTU21D;63509;45.250;38.102;2023-07-09T14:22:42;25.13;67.62
74946;HTU21D;63509;45.250;38.102;2023-07-09T14:25:24;25.04;67.62
74946;HTU21D;63509;45.250;38.102;2023-07-09T14:27:51;24.98;67.88
74946;HTU21D;63509;45.250;38.102;2023-07-09T14:30:20;24.93;68.00
74946;HTU21D;63509;45.250;38.102;2023-07-09T14:32:48;24.91;68.10
74946;HTU21D;63509;45.250;38.102;2023-07-09T14:35:19;24.90;68.17
74946;HTU21D;63509;45.250;38.102;2023-07-09T14:37:46;24.90;68.26
74946;HTU21D;63509;45.250;38.102;2023-07-09T14:40:14;24.90;68.30
74946;HTU21D;63509;45.250;38.102;2023-07-09T14:42:41;24.89;68.34
74946;HTU21D;63509;45.250;38.102;2023-07-09T14:45:26;24.88;68.07
74946;HTU21D;63509;45.250;38.102;2023-07-09T14:47:57;24.86;68.36
74946;HTU21D;63509;45.250;38.102;2023-07-09T14:50:24;24.84;68.36
74946;HTU21D;63509;45.250;38.102;2023-07-09T14:52:51;24.82;68.37
74946;HTU21D;63509;45.250;38.102;2023-07-09T14:55:20;24.77;68.36
74946;HTU21D;63509;45.250;38.102;2023-07-09T14:57:47;24.74;68.38
74946;HTU21D;63509;45.250;38.102;2023-07-09T15:00:18;24.71;68.35
74946;HTU21D;63509;45.250;38.102;2023-07-09T15:02:47;24.69;68.43
74946;HTU21D;63509;45.250;38.102;2023-07-09T15:05:19;24.68;68.39
74946;HTU21D;63509;45.250;38.102;2023-07-09T15:07:45;24.64;68.46
74946;HTU21D;63509;45.250;38.102;2023-07-09T15:10:14;24.61;68.49
74946;HTU21D;63509;45.250;38.102;2023-07-09T15:12:41;24.58;68.55
74946;HTU21D;63509;45.250;38.102;2023-07-09T15:15:21;24.56;68.17
74946;HTU21D;63509;45.250;38.102;2023-07-09T15:17:48;24.49;68.46
74946;HTU21D;63509;45.250;38.102;2023-07-09T15:20:21;24.45;68.45
74946;HTU21D;63509;45.250;38.102;2023-07-09T15:22:49;24.43;68.60
74946;HTU21D;63509;45.250;38.102;2023-07-09T15:25:22;24.41;68.61
74946;HTU21D;63509;45.250;38.102;2023-07-09T15:27:48;24.38;68.68
74946;HTU21D;63509;45.250;38.102;2023-07-09T15:32:44;24.33;68.76
74946;HTU21D;63509;45.250;38.102;2023-07-09T15:35:10;24.34;68.84
74946;HTU21D;63509;45.250;38.102;2023-07-09T15:37:37;24.33;68.86
74946;HTU21D;63509;45.250;38.102;2023-07-09T15:40:04;24.32;68.88
74946;HTU21D;63509;45.250;38.102;2023-07-09T15:42:39;24.32;68.94
74946;HTU21D;63509;45.250;38.102;2023-07-09T15:45:05;24.33;69.00
74946;HTU21D;63509;45.250;38.102;2023-07-09T15:47:32;24.34;69.05
74946;HTU21D;63509;45.250;38.102;2023-07-09T15:49:58;24.34;69.08
74946;HTU21D;63509;45.250;38.102;2023-07-09T15:52:24;24.34;69.07
74946;HTU21D;63509;45.250;38.102;2023-07-09T15:54:50;24.35;69.10
74946;HTU21D;63509;45.250;38.102;2023-07-09T15:57:16;24.34;69.10
74946;HTU21D;63509;45.250;38.102;2023-07-09T15:59:42;24.41;69.07
74946;HTU21D;63509;45.250;38.102;2023-07-09T16:02:13;24.44;68.93
74946;HTU21D;63509;45.250;38.102;2023-07-09T16:04:43;24.47;68.91
74946;HTU21D;63509;45.250;38.102;2023-07-09T16:07:10;24.50;68.94
74946;HTU21D;63509;45.250;38.102;2023-07-09T16:09:37;24.53;68.90
74946;HTU21D;63509;45.250;38.102;2023-07-09T16:12:10;24.55;68.81
74946;HTU21D;63509;45.250;38.102;2023-07-09T16:14:38;24.55;68.86
74946;HTU21D;63509;45.250;38.102;2023-07-09T16:17:09;24.56;68.78
74946;HTU21D;63509;45.250;38.102;2023-07-09T16:19:36;24.56;68.82